sensor_id;sensor_type;location;lat;lon;timestamp;pressure;altitude;pressure_sealevel;temperature;humidity
11077;BME280;5591;42.626;23.380;2023-04-21T00:00:55;93795.53;;;12.74;100.00
11077;BME280;5591;42.626;23.380;2023-04-21T00:03:23;93761.66;;;12.84;98.26
11077;BME280;5591;42.626;23.380;2023-04-21T00:05:52;93779.16;;;13.03;96.97
11077;BME280;5591;42.626;23.380;2023-04-21T00:08:24;93779.25;;;12.83;99.10
11077;BME280;5591;42.626;23.380;2023-04-21T00:10:52;93783.41;;;12.73;100.00
11077;BME280;5591;42.626;23.380;2023-04-21T00:13:18;93771.94;;;12.54;100.00
11077;BME280;5591;42.626;23.380;2023-04-21T00:15:45;93785.50;;;12.95;98.70
11077;BME280;5591;42.626;23.380;2023-04-21T00:18:12;93685.63;;;12.01;100.00
11077;BME280;5591;42.626;23.380;2023-04-21T00:20:39;93781.50;;;12.80;99.12
11077;BME280;5591;42.626;23.380;2023-04-21T00:23:05;93776.75;;;12.64;100.00
11077;BME280;5591;42.626;23.380;2023-04-21T00:25:36;93786.56;;;12.81;99.93
11077;BME280;5591;42.626;23.380;2023-04-21T00:28:03;93788.91;;;12.65;100.00
11077;BME280;5591;42.626;23.380;2023-04-21T00:30:30;93790.88;;;12.76;100.00
11077;BME280;5591;42.626;23.380;2023-04-21T00:32:57;93778.19;;;12.97;98.32
11077;BME280;5591;42.626;23.380;2023-04-21T00:35:24;93774.13;;;12.64;100.00
11077;BME280;5591;42.626;23.380;2023-04-21T00:37:50;93761.06;;;12.44;100.00
11077;BME280;5591;42.626;23.380;2023-04-21T00:40:17;93761.88;;;12.45;100.00
11077;BME280;5591;42.626;23.380;2023-04-21T00:42:46;93777.50;;;12.33;100.00
11077;BME280;5591;42.626;23.380;2023-04-21T00:45:13;93787.50;;;12.62;100.00
11077;BME280;5591;42.626;23.380;2023-04-21T00:47:40;93778.00;;;12.61;100.00
11077;BME280;5591;42.626;23.380;2023-04-21T00:50:08;93778.13;;;12.73;100.00
11077;BME280;5591;42.626;23.380;2023-04-21T00:52:36;93771.88;;;12.67;100.00
11077;BME280;5591;42.626;23.380;2023-04-21T00:55:05;93766.34;;;12.38;100.00
11077;BME280;5591;42.626;23.380;2023-04-21T00:57:35;93769.66;;;12.27;100.00
11077;BME280;5591;42.626;23.380;2023-04-21T01:00:05;93776.44;;;12.04;100.00
11077;BME280;5591;42.626;23.380;2023-04-21T01:02:34;93771.13;;;12.17;100.00
11077;BME280;5591;42.626;23.380;2023-04-21T01:05:03;93778.53;;;11.82;100.00
11077;BME280;5591;42.626;23.380;2023-04-21T01:07:31;93777.63;;;12.08;100.00
11077;BME280;5591;42.626;23.380;2023-04-21T01:09:58;93764.34;;;12.33;100.00
11077;BME280;5591;42.626;23.380;2023-04-21T01:12:25;93773.88;;;11.78;100.00
11077;BME280;5591;42.626;23.380;2023-04-21T01:14:52;93761.09;;;11.94;100.00
11077;BME280;5591;42.626;23.380;2023-04-21T01:17:20;93767.44;;;11.74;100.00
11077;BME280;5591;42.626;23.380;2023-04-21T01:19:47;93741.84;;;11.11;100.00
11077;BME280;5591;42.626;23.380;2023-04-21T01:22:16;93771.09;;;11.73;100.00
11077;BME280;5591;42.626;23.380;2023-04-21T01:24:45;93777.75;;;11.62;100.00
11077;BME280;5591;42.626;23.380;2023-04-21T01:27:14;93775.78;;;11.25;100.00
11077;BME280;5591;42.626;23.380;2023-04-21T01:29:43;93770.88;;;11.61;100.00
11077;BME280;5591;42.626;23.380;2023-04-21T01:32:13;93765.75;;;11.92;100.00
11077;BME280;5591;42.626;23.380;2023-04-21T01:34:41;93765.56;;;11.94;100.00
11077;BME280;5591;42.626;23.380;2023-04-21T01:37:08;93763.38;;;12.28;100.00
11077;BME280;5591;42.626;23.380;2023-04-21T01:39:38;93766.31;;;12.44;100.00
11077;BME280;5591;42.626;23.380;2023-04-21T01:42:05;93764.75;;;12.37;100.00
11077;BME280;5591;42.626;23.380;2023-04-21T01:44:33;93769.25;;;12.61;100.00
11077;BME280;5591;42.626;23.380;2023-04-21T01:47:00;93779.22;;;12.15;100.00
11077;BME280;5591;42.626;23.380;2023-04-21T01:49:27;93766.72;;;12.48;100.00
11077;BME280;5591;42.626;23.380;2023-04-21T01:51:54;93712.75;;;12.32;99.61
11077;BME280;5591;42.626;23.380;2023-04-21T01:54:21;93765.19;;;12.34;100.00
11077;BME280;5591;42.626;23.380;2023-04-21T01:56:49;93750.56;;;12.38;100.00
11077;BME280;5591;42.626;23.380;2023-04-21T01:59:16;93676.91;;;12.01;100.00
11077;BME280;5591;42.626;23.380;2023-04-21T02:01:42;93757.59;;;12.50;100.00
11077;BME280;5591;42.626;23.380;2023-04-21T02:04:09;93761.88;;;12.45;100.00
11077;BME280;5591;42.626;23.380;2023-04-21T02:06:36;93759.94;;;12.28;100.00
11077;BME280;5591;42.626;23.380;2023-04-21T02:09:03;93769.94;;;12.06;100.00
11077;BME280;5591;42.626;23.380;2023-04-21T02:11:30;93687.81;;;11.54;100.00
11077;BME280;5591;42.626;23.380;2023-04-21T02:13:58;93757.38;;;12.15;100.00
11077;BME280;5591;42.626;23.380;2023-04-21T02:16:25;93760.78;;;12.22;100.00
11077;BME280;5591;42.626;23.380;2023-04-21T02:18:52;93754.34;;;12.11;100.00
11077;BME280;5591;42.626;23.380;2023-04-21T02:21:19;93753.78;;;12.03;100.00
11077;BME280;5591;42.626;23.380;2023-04-21T02:23:46;93760.41;;;12.12;100.00
11077;BME280;5591;42.626;23.380;2023-04-21T02:26:13;93760.28;;;12.00;100.00
11077;BME280;5591;42.626;23.380;2023-04-21T02:28:40;93755.59;;;12.02;100.00
11077;BME280;5591;42.626;23.380;2023-04-21T02:31:08;93740.00;;;12.14;100.00
11077;BME280;5591;42.626;23.380;2023-04-21T02:33:34;93754.47;;;11.79;100.00
11077;BME280;5591;42.626;23.380;2023-04-21T02:36:02;93738.06;;;11.83;100.00
11077;BME280;5591;42.626;23.380;2023-04-21T02:38:29;93744.22;;;12.08;100.00
11077;BME280;5591;42.626;23.380;2023-04-21T02:40:55;93715.06;;;11.72;100.00
11077;BME280;5591;42.626;23.380;2023-04-21T02:43:22;93749.81;;;11.87;100.00
11077;BME280;5591;42.626;23.380;2023-04-21T02:45:50;93749.81;;;11.87;100.00
11077;BME280;5591;42.626;23.380;2023-04-21T02:48:18;93746.66;;;12.10;100.00
11077;BME280;5591;42.626;23.380;2023-04-21T02:50:47;93746.44;;;12.18;100.00
11077;BME280;5591;42.626;23.380;2023-04-21T02:53:14;93736.88;;;11.79;100.00
11077;BME280;5591;42.626;23.380;2023-04-21T02:55:41;93749.50;;;12.08;100.00
11077;BME280;5591;42.626;23.380;2023-04-21T02:58:08;93723.06;;;11.97;100.00
11077;BME280;5591;42.626;23.380;2023-04-21T03:00:35;93756.56;;;12.14;100.00
11077;BME280;5591;42.626;23.380;2023-04-21T03:03:02;93750.50;;;12.14;100.00
11077;BME280;5591;42.626;23.380;2023-04-21T03:05:30;93749.31;;;12.03;100.00
11077;BME280;5591;42.626;23.380;2023-04-21T03:07:57;93760.50;;;12.36;100.00
11077;BME280;5591;42.626;23.380;2023-04-21T03:10:24;93756.41;;;12.03;100.00
11077;BME280;5591;42.626;23.380;2023-04-21T03:12:51;93744.59;;;12.55;100.00
11077;BME280;5591;42.626;23.380;2023-04-21T03:15:18;93757.34;;;12.58;100.00
11077;BME280;5591;42.626;23.380;2023-04-21T03:17:45;93731.94;;;12.02;100.00
11077;BME280;5591;42.626;23.380;2023-04-21T03:20:12;93724.88;;;11.96;100.00
11077;BME280;5591;42.626;23.380;2023-04-21T03:22:40;93758.13;;;12.22;100.00
11077;BME280;5591;42.626;23.380;2023-04-21T03:25:07;93761.38;;;12.24;100.00
11077;BME280;5591;42.626;23.380;2023-04-21T03:27:34;93756.97;;;12.18;100.00
11077;BME280;5591;42.626;23.380;2023-04-21T03:30:00;93763.50;;;12.77;100.00
11077;BME280;5591;42.626;23.380;2023-04-21T03:32:27;93772.44;;;12.76;100.00
11077;BME280;5591;42.626;23.380;2023-04-21T03:34:54;93760.03;;;12.83;100.00
11077;BME280;5591;42.626;23.380;2023-04-21T03:37:21;93786.03;;;13.04;100.00
11077;BME280;5591;42.626;23.380;2023-04-21T03:39:49;93759.59;;;12.55;100.00
11077;BME280;5591;42.626;23.380;2023-04-21T03:42:15;93759.69;;;12.73;100.00
11077;BME280;5591;42.626;23.380;2023-04-21T03:44:42;93757.31;;;12.65;100.00
11077;BME280;5591;42.626;23.380;2023-04-21T03:47:09;93771.91;;;12.92;100.00
11077;BME280;5591;42.626;23.380;2023-04-21T03:49:36;93686.81;;;12.05;100.00
11077;BME280;5591;42.626;23.380;2023-04-21T03:52:03;93778.81;;;12.55;100.00
11077;BME280;5591;42.626;23.380;2023-04-21T03:54:30;93775.44;;;12.79;100.00
11077;BME280;5591;42.626;23.380;2023-04-21T03:56:58;93778.78;;;12.93;99.27
11077;BME280;5591;42.626;23.380;2023-04-21T03:59:24;93776.81;;;12.88;99.75
11077;BME280;5591;42.626;23.380;2023-04-21T04:01:51;93777.63;;;12.51;100.00
11077;BME280;5591;42.626;23.380;2023-04-21T04:04:18;93787.44;;;12.69;100.00
11077;BME280;5591;42.626;23.380;2023-04-21T04:06:45;93768.38;;;12.42;100.00
11077;BME280;5591;42.626;23.380;2023-04-21T04:09:11;93789.63;;;12.47;100.00
11077;BME280;5591;42.626;23.380;2023-04-21T04:11:38;93790.28;;;12.74;100.00
11077;BME280;5591;42.626;23.380;2023-04-21T04:14:06;93790.38;;;12.54;100.00
11077;BME280;5591;42.626;23.380;2023-04-21T04:16:33;93782.13;;;12.44;100.00
11077;BME280;5591;42.626;23.380;2023-04-21T04:19:00;93776.03;;;12.50;100.00
11077;BME280;5591;42.626;23.380;2023-04-21T04:21:28;93801.91;;;12.53;100.00
11077;BME280;5591;42.626;23.380;2023-04-21T04:23:56;93782.56;;;12.35;100.00
11077;BME280;5591;42.626;23.380;2023-04-21T04:26:24;93809.88;;;12.40;100.00
11077;BME280;5591;42.626;23.380;2023-04-21T04:28:51;93797.00;;;13.01;100.00
11077;BME280;5591;42.626;23.380;2023-04-21T04:31:22;93807.44;;;12.83;100.00
11077;BME280;5591;42.626;23.380;2023-04-21T04:33:49;93801.91;;;12.53;100.00
11077;BME280;5591;42.626;23.380;2023-04-21T04:36:16;93813.78;;;12.69;100.00
11077;BME280;5591;42.626;23.380;2023-04-21T04:38:44;93814.44;;;12.58;100.00
11077;BME280;5591;42.626;23.380;2023-04-21T04:41:11;93813.97;;;12.30;100.00
11077;BME280;5591;42.626;23.380;2023-04-21T04:43:38;93814.41;;;12.64;100.00
11077;BME280;5591;42.626;23.380;2023-04-21T04:46:05;93827.25;;;12.85;100.00
11077;BME280;5591;42.626;23.380;2023-04-21T04:48:35;93809.25;;;12.82;100.00
11077;BME280;5591;42.626;23.380;2023-04-21T04:51:01;93790.78;;;12.51;100.00
11077;BME280;5591;42.626;23.380;2023-04-21T04:53:28;93832.91;;;12.89;100.00
11077;BME280;5591;42.626;23.380;2023-04-21T04:55:56;93819.69;;;12.64;100.00
11077;BME280;5591;42.626;23.380;2023-04-21T04:58:23;93834.81;;;12.75;100.00
11077;BME280;5591;42.626;23.380;2023-04-21T05:00:50;93822.66;;;13.12;100.00
11077;BME280;5591;42.626;23.380;2023-04-21T05:03:17;93828.16;;;13.35;100.00
11077;BME280;5591;42.626;23.380;2023-04-21T05:05:45;93828.03;;;12.99;100.00
11077;BME280;5591;42.626;23.380;2023-04-21T05:08:12;93807.06;;;13.35;99.68
11077;BME280;5591;42.626;23.380;2023-04-21T05:10:39;93817.69;;;13.53;97.29
11077;BME280;5591;42.626;23.380;2023-04-21T05:13:06;93832.59;;;13.41;98.81
11077;BME280;5591;42.626;23.380;2023-04-21T05:15:32;93819.66;;;13.33;98.85
11077;BME280;5591;42.626;23.380;2023-04-21T05:17:59;93844.50;;;13.92;95.08
11077;BME280;5591;42.626;23.380;2023-04-21T05:20:26;93747.53;;;13.27;94.66
11077;BME280;5591;42.626;23.380;2023-04-21T05:22:54;93835.44;;;13.39;97.66
11077;BME280;5591;42.626;23.380;2023-04-21T05:25:21;93827.09;;;13.67;97.82
11077;BME280;5591;42.626;23.380;2023-04-21T05:40:51;93830.19;;;14.24;94.07
11077;BME280;5591;42.626;23.380;2023-04-21T05:43:18;93833.34;;;14.51;91.28
11077;BME280;5591;42.626;23.380;2023-04-21T05:45:45;93834.03;;;14.28;91.64
11077;BME280;5591;42.626;23.380;2023-04-21T05:48:12;93822.22;;;14.78;90.04
11077;BME280;5591;42.626;23.380;2023-04-21T05:50:39;93827.66;;;14.36;92.14
11077;BME280;5591;42.626;23.380;2023-04-21T05:53:05;93830.09;;;14.13;95.55
11077;BME280;5591;42.626;23.380;2023-04-21T05:55:32;93835.97;;;14.51;92.06
11077;BME280;5591;42.626;23.380;2023-04-21T05:58:01;93827.97;;;14.75;89.30
11077;BME280;5591;42.626;23.380;2023-04-21T06:00:28;93829.00;;;14.56;91.75
11077;BME280;5591;42.626;23.380;2023-04-21T06:02:55;93827.81;;;13.98;96.12
11077;BME280;5591;42.626;23.380;2023-04-21T06:05:22;93763.81;;;13.67;94.56
11077;BME280;5591;42.626;23.380;2023-04-21T06:07:48;93741.50;;;13.87;92.89
11077;BME280;5591;42.626;23.380;2023-04-21T06:10:16;93816.75;;;14.62;91.64
11077;BME280;5591;42.626;23.380;2023-04-21T06:12:43;93818.16;;;14.64;90.87
11077;BME280;5591;42.626;23.380;2023-04-21T06:15:11;93822.38;;;13.93;95.70
11077;BME280;5591;42.626;23.380;2023-04-21T06:17:38;93822.28;;;14.90;90.72
11077;BME280;5591;42.626;23.380;2023-04-21T06:20:07;93819.03;;;15.17;87.74
11077;BME280;5591;42.626;23.380;2023-04-21T06:22:34;93827.28;;;14.32;94.84
11077;BME280;5591;42.626;23.380;2023-04-21T06:25:01;93831.69;;;14.20;96.17
11077;BME280;5591;42.626;23.380;2023-04-21T06:27:27;93831.56;;;13.66;100.00
11077;BME280;5591;42.626;23.380;2023-04-21T06:29:54;93819.47;;;14.01;99.51
11077;BME280;5591;42.626;23.380;2023-04-21T06:32:22;93823.56;;;14.22;97.99
11077;BME280;5591;42.626;23.380;2023-04-21T06:34:49;93813.03;;;14.33;97.47
11077;BME280;5591;42.626;23.380;2023-04-21T06:37:16;93820.09;;;13.97;98.16
11077;BME280;5591;42.626;23.380;2023-04-21T06:39:43;93818.44;;;14.02;98.80
11077;BME280;5591;42.626;23.380;2023-04-21T06:42:10;93814.69;;;13.92;99.55
11077;BME280;5591;42.626;23.380;2023-04-21T06:44:37;93808.88;;;14.26;96.52
11077;BME280;5591;42.626;23.380;2023-04-21T06:47:04;93807.75;;;14.33;96.11
11077;BME280;5591;42.626;23.380;2023-04-21T06:49:32;93800.88;;;14.32;95.97
11077;BME280;5591;42.626;23.380;2023-04-21T06:51:59;93785.25;;;14.31;94.67
11077;BME280;5591;42.626;23.380;2023-04-21T06:54:26;93795.88;;;14.06;95.31
11077;BME280;5591;42.626;23.380;2023-04-21T06:56:53;93797.13;;;14.40;93.01
11077;BME280;5591;42.626;23.380;2023-04-21T06:59:20;93752.47;;;13.84;94.03
11077;BME280;5591;42.626;23.380;2023-04-21T07:01:46;93797.00;;;14.82;92.57
11077;BME280;5591;42.626;23.380;2023-04-21T07:04:16;93814.78;;;14.57;92.34
11077;BME280;5591;42.626;23.380;2023-04-21T07:06:44;93802.88;;;14.95;89.69
11077;BME280;5591;42.626;23.380;2023-04-21T07:09:11;93809.94;;;14.54;91.31
11077;BME280;5591;42.626;23.380;2023-04-21T07:11:38;93808.06;;;14.43;92.16
11077;BME280;5591;42.626;23.380;2023-04-21T07:14:05;93803.63;;;14.73;91.75
11077;BME280;5591;42.626;23.380;2023-04-21T07:16:32;93813.81;;;14.70;91.19
11077;BME280;5591;42.626;23.380;2023-04-21T07:18:58;93804.38;;;14.62;91.23
11077;BME280;5591;42.626;23.380;2023-04-21T07:21:26;93813.78;;;14.40;92.55
11077;BME280;5591;42.626;23.380;2023-04-21T07:23:55;93813.50;;;14.78;90.96
11077;BME280;5591;42.626;23.380;2023-04-21T07:26:23;93809.19;;;14.65;92.68
11077;BME280;5591;42.626;23.380;2023-04-21T07:28:49;93815.63;;;15.28;87.43
11077;BME280;5591;42.626;23.380;2023-04-21T07:31:17;93806.28;;;15.14;89.46
11077;BME280;5591;42.626;23.380;2023-04-21T07:33:43;93795.47;;;15.15;88.66
11077;BME280;5591;42.626;23.380;2023-04-21T07:36:10;93803.72;;;15.48;88.22
11077;BME280;5591;42.626;23.380;2023-04-21T07:38:37;93800.31;;;15.94;80.68
11077;BME280;5591;42.626;23.380;2023-04-21T07:41:09;93746.47;;;15.65;79.43
11077;BME280;5591;42.626;23.380;2023-04-21T07:43:36;93790.97;;;15.45;80.17
11077;BME280;5591;42.626;23.380;2023-04-21T07:46:03;93797.44;;;15.61;81.15
11077;BME280;5591;42.626;23.380;2023-04-21T07:48:30;93800.38;;;15.30;84.98
11077;BME280;5591;42.626;23.380;2023-04-21T07:50:56;93809.03;;;16.52;77.63
11077;BME280;5591;42.626;23.380;2023-04-21T07:53:24;93809.53;;;16.14;77.71
11077;BME280;5591;42.626;23.380;2023-04-21T07:55:51;93807.78;;;16.20;77.56
11077;BME280;5591;42.626;23.380;2023-04-21T07:58:19;93779.47;;;15.86;75.94
11077;BME280;5591;42.626;23.380;2023-04-21T08:00:46;93810.44;;;15.74;78.34
11077;BME280;5591;42.626;23.380;2023-04-21T08:03:13;93803.97;;;16.16;76.12
11077;BME280;5591;42.626;23.380;2023-04-21T08:05:40;93797.41;;;16.41;74.85
11077;BME280;5591;42.626;23.380;2023-04-21T08:08:07;93784.72;;;16.43;73.71
11077;BME280;5591;42.626;23.380;2023-04-21T08:10:34;93800.13;;;16.58;73.44
11077;BME280;5591;42.626;23.380;2023-04-21T08:13:00;93803.13;;;16.50;72.07
11077;BME280;5591;42.626;23.380;2023-04-21T08:15:29;93802.44;;;16.54;70.60
11077;BME280;5591;42.626;23.380;2023-04-21T08:17:55;93781.50;;;16.81;69.38
11077;BME280;5591;42.626;23.380;2023-04-21T08:20:22;93782.22;;;17.21;66.59
11077;BME280;5591;42.626;23.380;2023-04-21T08:22:49;93796.34;;;16.82;68.61
11077;BME280;5591;42.626;23.380;2023-04-21T08:25:16;93801.19;;;17.13;67.18
11077;BME280;5591;42.626;23.380;2023-04-21T08:27:42;93801.06;;;16.91;67.40
11077;BME280;5591;42.626;23.380;2023-04-21T08:30:10;93791.69;;;16.72;68.35
11077;BME280;5591;42.626;23.380;2023-04-21T08:32:39;93802.25;;;17.28;65.88
11077;BME280;5591;42.626;23.380;2023-04-21T08:35:06;93797.09;;;17.22;66.29
11077;BME280;5591;42.626;23.380;2023-04-21T08:37:35;93798.28;;;17.14;66.58
11077;BME280;5591;42.626;23.380;2023-04-21T08:40:01;93776.59;;;17.62;66.00
11077;BME280;5591;42.626;23.380;2023-04-21T08:42:28;93794.53;;;17.10;66.85
11077;BME280;5591;42.626;23.380;2023-04-21T08:44:55;93807.31;;;17.13;66.95
11077;BME280;5591;42.626;23.380;2023-04-21T08:47:23;93789.59;;;17.02;66.75
11077;BME280;5591;42.626;23.380;2023-04-21T08:49:51;93804.22;;;17.98;62.91
11077;BME280;5591;42.626;23.380;2023-04-21T08:52:18;93793.16;;;18.39;61.77
11077;BME280;5591;42.626;23.380;2023-04-21T08:54:45;93793.22;;;17.90;62.16
11077;BME280;5591;42.626;23.380;2023-04-21T08:57:16;93789.31;;;17.60;63.46
11077;BME280;5591;42.626;23.380;2023-04-21T08:59:43;93792.88;;;18.03;61.34
11077;BME280;5591;42.626;23.380;2023-04-21T09:02:11;93750.50;;;18.29;58.97
11077;BME280;5591;42.626;23.380;2023-04-21T09:04:40;93781.06;;;17.77;59.62
11077;BME280;5591;42.626;23.380;2023-04-21T09:07:08;93781.47;;;18.40;58.95
11077;BME280;5591;42.626;23.380;2023-04-21T09:09:51;93770.47;;;17.77;59.68
11077;BME280;5591;42.626;23.380;2023-04-21T09:12:18;93785.22;;;17.68;62.64
11077;BME280;5591;42.626;23.380;2023-04-21T09:14:45;93767.13;;;18.03;60.84
11077;BME280;5591;42.626;23.380;2023-04-21T09:17:14;93767.75;;;18.27;60.43
11077;BME280;5591;42.626;23.380;2023-04-21T09:19:41;93758.88;;;18.38;59.43
11077;BME280;5591;42.626;23.380;2023-04-21T09:22:13;93697.47;;;17.59;59.30
11077;BME280;5591;42.626;23.380;2023-04-21T09:24:44;93766.81;;;18.00;58.99
11077;BME280;5591;42.626;23.380;2023-04-21T09:27:11;93764.84;;;18.71;56.70
11077;BME280;5591;42.626;23.380;2023-04-21T09:29:38;93768.06;;;18.73;55.74
11077;BME280;5591;42.626;23.380;2023-04-21T09:32:15;93757.38;;;18.09;56.75
11077;BME280;5591;42.626;23.380;2023-04-21T09:34:42;93772.72;;;17.85;58.30
11077;BME280;5591;42.626;23.380;2023-04-21T09:37:12;93751.47;;;18.23;57.65
11077;BME280;5591;42.626;23.380;2023-04-21T09:39:44;93759.72;;;17.67;59.63
11077;BME280;5591;42.626;23.380;2023-04-21T09:42:11;93754.69;;;18.25;58.99
11077;BME280;5591;42.626;23.380;2023-04-21T09:44:38;93743.09;;;18.53;56.99
11077;BME280;5591;42.626;23.380;2023-04-21T09:47:09;93749.66;;;18.07;57.97
11077;BME280;5591;42.626;23.380;2023-04-21T09:49:38;93736.91;;;18.26;56.51
11077;BME280;5591;42.626;23.380;2023-04-21T09:52:10;93744.97;;;18.31;55.14
11077;BME280;5591;42.626;23.380;2023-04-21T09:54:43;93741.19;;;18.70;54.80
11077;BME280;5591;42.626;23.380;2023-04-21T09:57:12;93707.97;;;18.99;51.87
11077;BME280;5591;42.626;23.380;2023-04-21T09:59:44;93738.31;;;19.24;49.61
11077;BME280;5591;42.626;23.380;2023-04-21T10:02:11;93678.91;;;18.66;50.20
11077;BME280;5591;42.626;23.380;2023-04-21T10:04:40;93728.59;;;19.71;50.41
11077;BME280;5591;42.626;23.380;2023-04-21T10:07:08;93733.56;;;19.05;52.64
11077;BME280;5591;42.626;23.380;2023-04-21T10:09:40;93744.66;;;18.49;53.68
11077;BME280;5591;42.626;23.380;2023-04-21T10:12:09;93739.72;;;18.19;53.68
11077;BME280;5591;42.626;23.380;2023-04-21T10:14:36;93711.19;;;18.10;52.18
11077;BME280;5591;42.626;23.380;2023-04-21T10:17:04;93721.94;;;18.84;51.80
11077;BME280;5591;42.626;23.380;2023-04-21T10:19:31;93732.28;;;19.07;51.54
11077;BME280;5591;42.626;23.380;2023-04-21T10:22:01;93712.38;;;20.14;48.48
11077;BME280;5591;42.626;23.380;2023-04-21T10:24:28;93672.38;;;19.73;47.85
11077;BME280;5591;42.626;23.380;2023-04-21T10:26:57;93731.31;;;20.18;48.09
11077;BME280;5591;42.626;23.380;2023-04-21T10:29:30;93720.31;;;20.09;48.27
11077;BME280;5591;42.626;23.380;2023-04-21T10:31:57;93719.66;;;19.19;50.00
11077;BME280;5591;42.626;23.380;2023-04-21T10:34:34;93718.34;;;18.74;50.70
11077;BME280;5591;42.626;23.380;2023-04-21T10:37:17;93734.81;;;18.28;54.63
11077;BME280;5591;42.626;23.380;2023-04-21T10:39:50;93719.03;;;17.62;57.48
11077;BME280;5591;42.626;23.380;2023-04-21T10:42:20;93732.41;;;17.88;58.87
11077;BME280;5591;42.626;23.380;2023-04-21T10:44:59;93692.97;;;17.97;58.98
11077;BME280;5591;42.626;23.380;2023-04-21T10:47:27;93693.78;;;18.19;59.85
11077;BME280;5591;42.626;23.380;2023-04-21T10:49:56;93706.47;;;17.58;62.59
11077;BME280;5591;42.626;23.380;2023-04-21T10:52:30;93725.44;;;18.04;62.08
11077;BME280;5591;42.626;23.380;2023-04-21T10:55:06;93688.94;;;18.32;59.35
11077;BME280;5591;42.626;23.380;2023-04-21T10:57:36;93731.09;;;18.50;56.96
11077;BME280;5591;42.626;23.380;2023-04-21T11:00:05;93730.16;;;18.18;58.23
11077;BME280;5591;42.626;23.380;2023-04-21T11:02:34;93663.91;;;18.55;56.30
11077;BME280;5591;42.626;23.380;2023-04-21T11:05:01;93736.16;;;19.21;55.38
11077;BME280;5591;42.626;23.380;2023-04-21T11:07:28;93730.47;;;18.65;55.83
11077;BME280;5591;42.626;23.380;2023-04-21T11:09:56;93738.44;;;18.22;56.02
11077;BME280;5591;42.626;23.380;2023-04-21T11:12:26;93724.50;;;18.15;56.89
11077;BME280;5591;42.626;23.380;2023-04-21T11:14:56;93728.53;;;18.55;56.01
11077;BME280;5591;42.626;23.380;2023-04-21T11:17:23;93739.06;;;18.72;55.87
11077;BME280;5591;42.626;23.380;2023-04-21T11:19:51;93735.03;;;18.26;54.62
11077;BME280;5591;42.626;23.380;2023-04-21T11:22:19;93715.94;;;18.99;53.43
11077;BME280;5591;42.626;23.380;2023-04-21T11:24:48;93709.50;;;19.84;51.99
11077;BME280;5591;42.626;23.380;2023-04-21T11:27:16;93715.34;;;20.23;50.90
11077;BME280;5591;42.626;23.380;2023-04-21T11:29:44;93716.59;;;20.10;50.70
11077;BME280;5591;42.626;23.380;2023-04-21T11:32:13;93705.56;;;21.64;48.14
11077;BME280;5591;42.626;23.380;2023-04-21T11:34:40;93714.81;;;23.48;46.24
11077;BME280;5591;42.626;23.380;2023-04-21T11:37:08;93697.41;;;22.39;46.73
11077;BME280;5591;42.626;23.380;2023-04-21T11:39:39;93732.97;;;20.90;50.18
11077;BME280;5591;42.626;23.380;2023-04-21T11:42:06;93713.53;;;22.14;48.47
11077;BME280;5591;42.626;23.380;2023-04-21T11:44:34;93716.97;;;21.05;50.00
11077;BME280;5591;42.626;23.380;2023-04-21T11:47:13;93715.97;;;21.61;50.03
11077;BME280;5591;42.626;23.380;2023-04-21T11:49:44;93696.47;;;22.00;48.41
11077;BME280;5591;42.626;23.380;2023-04-21T11:52:11;93712.19;;;22.27;48.30
11077;BME280;5591;42.626;23.380;2023-04-21T11:54:38;93719.47;;;20.50;50.42
11077;BME280;5591;42.626;23.380;2023-04-21T11:57:05;93693.16;;;19.71;52.19
11077;BME280;5591;42.626;23.380;2023-04-21T11:59:32;93720.88;;;18.85;55.61
11077;BME280;5591;42.626;23.380;2023-04-21T12:01:58;93722.13;;;19.04;56.01
11077;BME280;5591;42.626;23.380;2023-04-21T12:04:27;93716.88;;;19.72;54.51
11077;BME280;5591;42.626;23.380;2023-04-21T12:06:56;93718.91;;;19.29;54.74
11077;BME280;5591;42.626;23.380;2023-04-21T12:09:23;93716.16;;;19.19;54.48
11077;BME280;5591;42.626;23.380;2023-04-21T12:11:51;93725.38;;;18.85;54.92
11077;BME280;5591;42.626;23.380;2023-04-21T12:14:20;93692.19;;;18.39;54.92
11077;BME280;5591;42.626;23.380;2023-04-21T12:16:48;93723.69;;;17.93;54.66
11077;BME280;5591;42.626;23.380;2023-04-21T12:19:21;93720.25;;;18.52;53.39
11077;BME280;5591;42.626;23.380;2023-04-21T12:21:53;93722.84;;;19.21;51.66
11077;BME280;5591;42.626;23.380;2023-04-21T12:24:20;93726.22;;;19.43;50.06
11077;BME280;5591;42.626;23.380;2023-04-21T12:26:47;93711.41;;;18.46;51.09
11077;BME280;5591;42.626;23.380;2023-04-21T12:29:14;93720.13;;;18.42;51.02
11077;BME280;5591;42.626;23.380;2023-04-21T12:31:41;93723.72;;;18.52;51.76
11077;BME280;5591;42.626;23.380;2023-04-21T12:34:08;93733.66;;;18.62;51.48
11077;BME280;5591;42.626;23.380;2023-04-21T12:36:34;93703.03;;;19.75;49.05
11077;BME280;5591;42.626;23.380;2023-04-21T12:39:04;93724.19;;;20.33;47.53
11077;BME280;5591;42.626;23.380;2023-04-21T12:41:32;93680.06;;;18.75;49.19
11077;BME280;5591;42.626;23.380;2023-04-21T12:43:59;93737.88;;;18.20;51.36
11077;BME280;5591;42.626;23.380;2023-04-21T12:46:26;93720.13;;;18.90;50.65
11077;BME280;5591;42.626;23.380;2023-04-21T12:48:53;93721.00;;;19.53;49.32
11077;BME280;5591;42.626;23.380;2023-04-21T12:51:20;93703.09;;;20.93;47.13
11077;BME280;5591;42.626;23.380;2023-04-21T12:53:47;93705.19;;;22.99;43.38
11077;BME280;5591;42.626;23.380;2023-04-21T12:56:15;93707.81;;;23.14;43.30
11077;BME280;5591;42.626;23.380;2023-04-21T12:58:42;93703.81;;;25.98;39.40
11077;BME280;5591;42.626;23.380;2023-04-21T13:01:08;93702.47;;;25.27;38.21
11077;BME280;5591;42.626;23.380;2023-04-21T13:03:36;93697.06;;;26.14;37.84
11077;BME280;5591;42.626;23.380;2023-04-21T13:06:04;93707.03;;;23.13;40.98
11077;BME280;5591;42.626;23.380;2023-04-21T13:08:30;93695.00;;;23.06;42.49
11077;BME280;5591;42.626;23.380;2023-04-21T13:10:57;93699.81;;;23.04;41.91
11077;BME280;5591;42.626;23.380;2023-04-21T13:13:25;93671.31;;;22.11;43.60